createdAt,value
2023-01-27T00:02:21.697Z,78.80
2023-01-27T00:08:27.370Z,91.87
2023-01-27T00:14:30.581Z,90.67
2023-01-27T00:20:55.160Z,113.10
2023-01-27T00:27:01.597Z,93.17
2023-01-27T00:33:25.197Z,114.57
2023-01-27T00:39:27.634Z,91.37
2023-01-27T00:45:48.160Z,97.00
2023-01-27T00:51:50.663Z,116.87
2023-01-27T00:57:52.972Z,169.83
2023-01-27T01:03:54.686Z,137.73
2023-01-27T01:09:57.013Z,157.53
2023-01-27T01:16:05.541Z,162.87
2023-01-27T01:22:07.952Z,193.03
2023-01-27T01:28:10.417Z,116.50
2023-01-27T01:34:12.843Z,107.27
2023-01-27T01:40:15.312Z,76.63
2023-01-27T01:46:18.872Z,198.57
2023-01-27T01:52:25.230Z,106.37
2023-01-27T01:58:28.705Z,134.70
2023-01-27T02:04:38.227Z,108.53
2023-01-27T02:10:41.654Z,91.53
2023-01-27T02:16:45.244Z,92.37
2023-01-27T02:23:04.697Z,102.17
2023-01-27T02:29:11.186Z,97.03
2023-01-27T02:35:21.649Z,79.67
2023-01-27T02:41:28.136Z,80.33
2023-01-27T02:47:30.576Z,67.83
2023-01-27T02:53:32.518Z,67.17
2023-01-27T02:59:37.486Z,50.70
2023-01-27T03:05:40.960Z,63.00
2023-01-27T03:12:02.476Z,49.33
2023-01-27T03:18:10.975Z,82.67
2023-01-27T03:24:13.495Z,108.43
2023-01-27T03:30:15.853Z,125.53
2023-01-27T03:36:37.423Z,126.97
2023-01-27T03:42:57.910Z,127.17
2023-01-27T03:49:01.427Z,136.73
2023-01-27T03:55:04.876Z,138.37
2023-01-27T04:01:19.424Z,133.23
2023-01-27T04:07:21.819Z,146.20
2023-01-27T04:13:24.309Z,158.83
2023-01-27T04:19:27.278Z,145.73
2023-01-27T04:25:29.063Z,122.90
2023-01-27T04:31:32.782Z,106.73
2023-01-27T04:37:34.840Z,149.97
2023-01-27T04:43:36.611Z,165.00
2023-01-27T04:49:41.401Z,227.53
2023-01-27T04:55:49.543Z,216.87
2023-01-27T05:01:53.027Z,121.27
2023-01-27T05:07:55.439Z,115.90
2023-01-27T05:14:01.966Z,89.17
2023-01-27T05:20:06.369Z,85.43
2023-01-27T05:26:24.893Z,89.60
2023-01-27T05:32:28.355Z,91.67
2023-01-27T05:38:30.826Z,82.13
2023-01-27T05:44:32.612Z,94.93
2023-01-27T05:50:37.396Z,80.30
2023-01-27T05:56:40.796Z,74.70
2023-01-27T06:02:44.832Z,85.57
2023-01-27T06:08:49.123Z,97.03
2023-01-27T06:14:51.590Z,103.47
2023-01-27T06:20:55.811Z,86.33
2023-01-27T06:27:00.737Z,62.10
2023-01-27T06:33:04.002Z,74.70
2023-01-27T06:39:06.484Z,76.20
2023-01-27T06:45:08.894Z,65.80
2023-01-27T06:51:11.393Z,59.50
2023-01-27T06:57:13.806Z,63.53
2023-01-27T07:03:19.309Z,63.97
2023-01-27T07:09:21.778Z,58.27
2023-01-27T07:15:24.225Z,51.23
2023-01-27T07:21:26.717Z,74.13
2023-01-27T07:27:30.149Z,58.73
2023-01-27T07:33:32.620Z,64.37
2023-01-27T07:39:37.140Z,47.23
2023-01-27T07:45:39.596Z,43.80
2023-01-27T07:51:41.607Z,60.23
2023-01-27T07:57:44.535Z,52.90
2023-01-27T08:03:49.011Z,49.00
2023-01-27T08:09:51.419Z,65.87
2023-01-27T08:16:00.643Z,68.97
2023-01-27T08:22:03.380Z,68.60
2023-01-27T08:28:07.791Z,49.37
2023-01-27T08:34:10.316Z,50.10
2023-01-27T08:40:13.099Z,62.27
2023-01-27T08:46:15.141Z,58.07
2023-01-27T08:52:19.748Z,43.77
2023-01-27T08:58:23.222Z,64.93
2023-01-27T09:04:27.547Z,59.13
2023-01-27T09:10:30.138Z,53.13
2023-01-27T09:16:32.603Z,55.70
2023-01-27T09:22:34.479Z,52.27
2023-01-27T09:28:36.292Z,59.83
2023-01-27T09:34:38.795Z,67.20
2023-01-27T09:40:47.521Z,48.47
2023-01-27T09:46:59.610Z,49.97
2023-01-27T09:53:40.854Z,46.33
2023-01-27T10:00:00.639Z,114.60
2023-01-27T10:06:36.403Z,47.53
2023-01-27T10:12:52.994Z,61.70
2023-01-27T10:19:13.163Z,76.17
2023-01-27T10:25:53.076Z,59.60
2023-01-27T10:32:02.914Z,63.67
2023-01-27T10:38:37.456Z,50.63
2023-01-27T10:45:06.081Z,105.37
2023-01-27T10:51:48.855Z,63.77
2023-01-27T10:58:20.934Z,83.80
2023-01-27T11:04:53.858Z,87.23
2023-01-27T11:11:19.260Z,75.30
2023-01-27T11:17:31.942Z,73.30
2023-01-27T11:23:42.435Z,66.27
2023-01-27T11:29:57.059Z,61.20
2023-01-27T11:35:59.079Z,75.57
2023-01-27T11:42:00.968Z,65.23
2023-01-27T11:48:07.365Z,60.43
2023-01-27T11:54:20.887Z,62.10
2023-01-27T12:00:27.376Z,65.57
2023-01-27T12:06:47.965Z,67.37
2023-01-27T12:12:50.882Z,62.17
2023-01-27T12:19:04.873Z,51.83
2023-01-27T12:25:19.788Z,47.97
2023-01-27T12:31:39.979Z,55.90
2023-01-27T12:37:42.412Z,52.50
2023-01-27T12:44:10.062Z,65.23
2023-01-27T12:50:24.479Z,53.73
2023-01-27T12:56:26.924Z,55.73
2023-01-27T13:02:34.424Z,58.90
2023-01-27T13:08:41.946Z,48.20
2023-01-27T13:14:45.435Z,62.17
2023-01-27T13:21:14.282Z,52.17
2023-01-27T13:27:20.461Z,52.70
2023-01-27T13:33:42.688Z,50.67
2023-01-27T13:40:02.529Z,60.10
2023-01-27T13:46:22.052Z,59.43
2023-01-27T13:52:25.213Z,125.27
2023-01-27T13:58:49.930Z,105.93
2023-01-27T14:05:16.736Z,56.07
2023-01-27T14:11:43.112Z,52.50
2023-01-27T14:17:59.676Z,48.10
2023-01-27T14:24:38.377Z,46.57
2023-01-27T14:30:53.929Z,52.10
2023-01-27T14:37:04.338Z,79.87
2023-01-27T14:43:22.620Z,49.27
2023-01-27T14:49:46.398Z,63.10
2023-01-27T14:56:03.914Z,46.40
2023-01-27T15:02:27.436Z,64.47
2023-01-27T15:08:52.007Z,55.83
2023-01-27T15:15:32.623Z,71.17
2023-01-27T15:21:44.637Z,39.00
2023-01-27T15:27:49.627Z,43.77
2023-01-27T15:34:15.189Z,43.17
2023-01-27T15:40:19.650Z,44.77
2023-01-27T15:46:31.943Z,49.83
2023-01-27T15:52:42.985Z,44.03
2023-01-27T15:58:56.151Z,44.63
2023-01-27T16:05:07.659Z,47.43
2023-01-27T16:11:29.243Z,41.23
2023-01-27T16:17:37.685Z,39.83
2023-01-27T16:23:57.269Z,44.93
2023-01-27T16:30:07.763Z,42.53
2023-01-27T16:36:30.290Z,43.67
2023-01-27T16:42:45.713Z,44.27
2023-01-27T16:48:51.299Z,48.20
2023-01-27T16:54:55.748Z,46.43
2023-01-27T17:01:00.273Z,45.03
2023-01-27T17:07:16.814Z,42.43
2023-01-27T17:13:37.298Z,41.03
2023-01-27T17:19:41.725Z,44.17
2023-01-27T17:25:44.245Z,48.83
2023-01-27T17:31:47.867Z,47.10
2023-01-27T17:37:51.183Z,41.37
2023-01-27T17:43:54.619Z,41.73
2023-01-27T17:49:58.083Z,41.57
2023-01-27T17:56:11.617Z,50.80
2023-01-27T18:02:21.117Z,38.60
2023-01-27T18:08:26.542Z,38.40
2023-01-27T18:14:35.004Z,44.47
2023-01-27T18:20:37.817Z,48.43
2023-01-27T18:26:41.951Z,52.80
2023-01-27T18:32:46.403Z,45.53
2023-01-27T18:38:50.699Z,53.60
2023-01-27T18:44:57.370Z,53.83
2023-01-27T18:51:01.347Z,45.60
2023-01-27T18:57:03.273Z,42.97
2023-01-27T19:03:12.053Z,51.07
2023-01-27T19:09:18.188Z,52.47
2023-01-27T19:15:24.721Z,49.67
2023-01-27T19:27:46.737Z,58.10
2023-01-27T19:33:49.165Z,61.33
2023-01-27T19:39:50.895Z,53.90
2023-01-27T19:45:53.163Z,57.70
2023-01-27T19:51:55.558Z,59.83
2023-01-27T19:57:59.020Z,52.63
2023-01-27T20:04:01.513Z,50.27
2023-01-27T20:10:03.901Z,63.70
2023-01-27T20:16:07.427Z,73.77
2023-01-27T20:22:16.729Z,125.33
2023-01-27T20:28:18.480Z,183.00
2023-01-27T20:34:20.832Z,83.97
2023-01-27T20:40:25.249Z,103.47
2023-01-27T20:46:28.711Z,65.27
2023-01-27T20:52:35.183Z,78.33
2023-01-27T20:58:41.997Z,86.23
2023-01-27T21:04:45.150Z,86.63
2023-01-27T21:10:47.627Z,116.20
2023-01-27T21:16:50.128Z,54.23
2023-01-27T21:22:54.557Z,52.77
2023-01-27T21:28:58.053Z,48.27
2023-01-27T21:35:00.514Z,55.30
2023-01-27T21:41:35.175Z,58.47
2023-01-27T21:47:37.580Z,48.70
2023-01-27T21:53:42.046Z,49.33
2023-01-27T21:59:44.548Z,55.37
2023-01-27T22:05:46.990Z,47.97
2023-01-27T22:11:49.514Z,50.13
2023-01-27T22:17:53.977Z,44.33
2023-01-27T22:23:56.384Z,39.60
2023-01-27T22:29:58.821Z,47.40
2023-01-27T22:36:03.314Z,55.27
2023-01-27T22:42:05.798Z,44.47
2023-01-27T22:48:09.273Z,47.00
2023-01-27T22:54:11.798Z,44.77
2023-01-27T23:00:14.197Z,38.63
2023-01-27T23:06:16.669Z,46.93
2023-01-27T23:12:19.113Z,49.50
2023-01-27T23:18:21.612Z,54.53
2023-01-27T23:24:26.494Z,45.10
2023-01-27T23:30:29.536Z,49.87
2023-01-27T23:36:32.005Z,54.87
2023-01-27T23:42:34.463Z,53.93
2023-01-27T23:48:38.897Z,47.07
2023-01-27T23:54:41.331Z,53.00
